createdAt,value
2023-04-04T00:00:09.238Z,4.00
2023-04-04T00:03:11.187Z,5.87
2023-04-04T00:06:12.782Z,4.28
2023-04-04T00:09:14.409Z,9.80
2023-04-04T00:12:16.146Z,1.83
2023-04-04T00:15:17.748Z,1.63
2023-04-04T00:18:19.247Z,3.78
2023-04-04T00:21:20.815Z,8.45
2023-04-04T00:24:22.513Z,4.85
2023-04-04T00:27:24.093Z,5.38
2023-04-04T00:30:25.800Z,3.47
2023-04-04T00:33:27.464Z,3.25
2023-04-04T00:36:29.088Z,5.80
2023-04-04T00:39:30.681Z,4.63
2023-04-04T00:42:34.047Z,4.22
2023-04-04T00:45:35.749Z,4.10
2023-04-04T00:48:37.456Z,4.47
2023-04-04T00:51:38.974Z,3.20
2023-04-04T00:54:40.561Z,2.72
2023-04-04T00:57:42.128Z,2.53
2023-04-04T01:00:43.690Z,3.67
2023-04-04T01:03:45.394Z,40.05
2023-04-04T01:06:47.015Z,31.65
2023-04-04T01:09:48.627Z,84.35
2023-04-04T01:12:50.122Z,77.55
2023-04-04T01:15:51.674Z,71.45
2023-04-04T01:18:53.276Z,48.30
2023-04-04T01:21:54.810Z,45.30
2023-04-04T01:24:56.718Z,27.02
2023-04-04T01:28:01.255Z,20.47
2023-04-04T01:31:03.115Z,11.30
2023-04-04T01:34:13.897Z,10.43
2023-04-04T01:37:41.150Z,8.70
2023-04-04T01:40:46.664Z,7.80
2023-04-04T01:43:48.365Z,5.72
2023-04-04T01:46:55.019Z,5.00
2023-04-04T01:49:56.540Z,6.72
2023-04-04T01:52:58.122Z,7.80
2023-04-04T01:55:59.962Z,5.15
2023-04-04T01:59:01.658Z,5.83
2023-04-04T02:02:03.211Z,11.85
2023-04-04T02:05:05.045Z,50.97
2023-04-04T02:08:09.462Z,34.70
2023-04-04T02:11:10.972Z,96.18
2023-04-04T02:14:12.762Z,176.23
2023-04-04T02:17:14.242Z,127.00
2023-04-04T02:20:19.331Z,119.60
2023-04-04T02:23:21.032Z,151.57
2023-04-04T02:26:22.606Z,130.60
2023-04-04T02:29:24.209Z,79.72
2023-04-04T02:32:25.795Z,33.45
2023-04-04T02:35:27.405Z,29.58
2023-04-04T02:38:28.925Z,24.73
2023-04-04T02:41:30.471Z,9.18
2023-04-04T02:44:32.030Z,8.52
2023-04-04T02:47:33.595Z,9.88
2023-04-04T02:50:35.145Z,25.92
2023-04-04T02:53:36.709Z,20.08
2023-04-04T02:56:40.492Z,19.55
2023-04-04T02:59:42.011Z,19.80
2023-04-04T03:02:43.666Z,22.88
2023-04-04T03:05:45.241Z,14.68
2023-04-04T03:08:47.012Z,25.60
2023-04-04T03:11:49.801Z,83.38
2023-04-04T03:14:51.374Z,37.30
2023-04-04T03:17:53.190Z,55.38
2023-04-04T03:20:54.818Z,46.33
2023-04-04T03:23:56.455Z,49.20
2023-04-04T03:27:00.785Z,53.92
2023-04-04T03:30:02.457Z,54.65
2023-04-04T03:33:07.633Z,43.38
2023-04-04T03:36:13.221Z,25.83
2023-04-04T03:39:14.855Z,19.63
2023-04-04T03:42:16.787Z,24.27
2023-04-04T03:45:18.978Z,18.70
2023-04-04T03:48:20.577Z,10.68
2023-04-04T03:51:25.707Z,10.93
2023-04-04T03:54:28.238Z,11.35
2023-04-04T03:57:29.804Z,6.43
2023-04-04T04:00:31.605Z,5.45
2023-04-04T04:03:33.331Z,6.60
2023-04-04T04:06:37.943Z,11.70
2023-04-04T04:09:39.908Z,5.88
2023-04-04T04:12:41.856Z,7.10
2023-04-04T04:15:43.585Z,4.25
2023-04-04T04:18:45.185Z,13.38
2023-04-04T04:21:46.777Z,7.50
2023-04-04T04:24:48.322Z,10.38
2023-04-04T04:27:49.895Z,30.27
2023-04-04T04:30:52.252Z,19.02
2023-04-04T04:33:53.848Z,11.73
2023-04-04T04:36:55.424Z,13.07
2023-04-04T04:39:57.288Z,22.83
2023-04-04T04:42:58.835Z,14.60
2023-04-04T04:46:01.141Z,16.67
2023-04-04T04:49:02.832Z,24.05
2023-04-04T04:52:06.833Z,21.70
2023-04-04T04:55:08.698Z,19.73
2023-04-04T04:58:10.999Z,17.20
2023-04-04T05:01:12.660Z,14.65
2023-04-04T05:04:14.733Z,18.58
2023-04-04T05:07:16.380Z,17.30
2023-04-04T05:10:18.066Z,12.45
2023-04-04T05:13:20.579Z,20.88
2023-04-04T05:16:22.184Z,10.18
2023-04-04T05:19:23.838Z,16.95
2023-04-04T05:22:25.521Z,13.45
2023-04-04T05:25:27.660Z,19.23
2023-04-04T05:28:29.285Z,14.30
2023-04-04T05:31:30.844Z,10.38
2023-04-04T05:34:32.591Z,13.93
2023-04-04T05:37:40.534Z,13.73
2023-04-04T05:40:42.358Z,19.20
2023-04-04T05:43:44.057Z,15.73
2023-04-04T05:46:45.652Z,19.55
2023-04-04T05:49:47.375Z,16.98
2023-04-04T05:52:48.905Z,7.05
2023-04-04T05:55:53.889Z,3.15
2023-04-04T05:58:55.692Z,6.07
2023-04-04T06:01:57.587Z,8.23
2023-04-04T06:04:59.253Z,30.83
2023-04-04T06:08:00.908Z,21.60
2023-04-04T06:11:02.436Z,14.07
2023-04-04T06:14:04.051Z,7.57
2023-04-04T06:17:05.583Z,9.10
2023-04-04T06:20:08.394Z,5.13
2023-04-04T06:26:12.706Z,7.05
2023-04-04T06:29:14.273Z,4.00
2023-04-04T06:32:15.996Z,18.77
2023-04-04T06:35:19.629Z,6.93
2023-04-04T06:38:21.989Z,9.60
2023-04-04T06:41:23.615Z,9.68
2023-04-04T06:44:25.206Z,5.93
2023-04-04T06:47:26.904Z,6.07
2023-04-04T06:50:30.973Z,4.18
2023-04-04T06:53:32.600Z,3.97
2023-04-04T06:56:36.925Z,10.05
2023-04-04T06:59:38.533Z,2.28
2023-04-04T07:02:40.408Z,5.85
2023-04-04T07:05:42.682Z,5.20
2023-04-04T07:08:44.258Z,8.35
2023-04-04T07:11:46.150Z,3.03
2023-04-04T07:14:47.675Z,3.83
2023-04-04T07:17:49.585Z,3.50
2023-04-04T07:20:51.283Z,2.78
2023-04-04T07:23:53.782Z,6.60
2023-04-04T07:26:55.377Z,2.33
2023-04-04T07:29:56.964Z,6.97
2023-04-04T07:32:59.353Z,3.65
2023-04-04T07:36:04.220Z,4.20
2023-04-04T07:39:07.168Z,3.25
2023-04-04T07:42:08.740Z,6.97
2023-04-04T07:45:10.606Z,2.95
2023-04-04T07:48:12.188Z,5.20
2023-04-04T07:51:14.036Z,5.63
2023-04-04T07:54:15.826Z,5.13
2023-04-04T07:57:17.376Z,2.07
2023-04-04T08:00:21.887Z,4.80
2023-04-04T08:03:25.852Z,10.75
2023-04-04T08:06:27.629Z,29.63
2023-04-04T08:09:34.491Z,7.50
2023-04-04T08:12:36.157Z,4.40
2023-04-04T08:15:38.135Z,4.63
2023-04-04T08:18:39.800Z,4.72
2023-04-04T08:21:41.608Z,10.02
2023-04-04T08:24:43.196Z,4.57
2023-04-04T08:27:45.588Z,7.60
2023-04-04T08:30:47.234Z,4.47
2023-04-04T08:33:48.898Z,2.73
2023-04-04T08:36:50.497Z,4.67
2023-04-04T08:39:52.012Z,3.35
2023-04-04T08:42:53.713Z,3.45
2023-04-04T08:45:55.240Z,3.63
2023-04-04T08:48:56.988Z,2.10
2023-04-04T08:51:59.592Z,3.50
2023-04-04T08:58:03.402Z,3.53
2023-04-04T09:01:05.762Z,4.03
2023-04-04T09:04:08.684Z,3.50
2023-04-04T09:07:13.378Z,4.60
2023-04-04T09:10:15.194Z,4.53
2023-04-04T09:13:17.094Z,6.28
2023-04-04T09:16:18.675Z,5.80
2023-04-04T09:19:20.265Z,3.85
2023-04-04T09:22:22.335Z,4.77
2023-04-04T09:25:23.848Z,5.68
2023-04-04T09:28:25.523Z,2.87
2023-04-04T09:31:27.300Z,8.27
2023-04-04T09:34:29.039Z,3.55
2023-04-04T09:37:30.596Z,3.47
2023-04-04T09:40:32.397Z,4.00
2023-04-04T09:43:35.562Z,4.10
2023-04-04T09:46:40.961Z,4.72
2023-04-04T09:49:42.714Z,3.85
2023-04-04T09:52:44.400Z,3.40
2023-04-04T09:55:53.615Z,5.20
2023-04-04T09:59:03.010Z,2.80
2023-04-04T10:02:08.901Z,5.25
2023-04-04T10:05:10.844Z,2.03
2023-04-04T10:08:21.383Z,3.10
2023-04-04T10:11:32.532Z,3.50
2023-04-04T10:14:37.791Z,3.58
2023-04-04T10:17:40.245Z,4.55
2023-04-04T10:20:42.797Z,7.97
2023-04-04T10:23:47.506Z,24.95
2023-04-04T10:26:49.178Z,4.88
2023-04-04T10:29:51.572Z,3.95
2023-04-04T10:32:59.447Z,22.05
2023-04-04T10:36:03.360Z,5.20
2023-04-04T10:39:21.711Z,4.25
2023-04-04T10:42:26.343Z,4.35
2023-04-04T10:45:29.119Z,3.15
2023-04-04T10:48:30.675Z,4.00
2023-04-04T10:51:35.330Z,3.67
2023-04-04T10:54:44.112Z,3.45
2023-04-04T10:57:54.778Z,4.97
2023-04-04T11:00:56.781Z,2.78
2023-04-04T11:04:23.712Z,4.57
2023-04-04T11:07:28.172Z,5.53
2023-04-04T11:10:36.807Z,6.53
2023-04-04T11:13:40.322Z,2.92
2023-04-04T11:16:48.581Z,3.33
2023-04-04T11:20:00.247Z,3.85
2023-04-04T11:23:09.042Z,5.03
2023-04-04T11:26:10.665Z,3.17
2023-04-04T11:29:20.840Z,7.05
2023-04-04T11:32:52.965Z,5.90
2023-04-04T11:36:07.734Z,7.30
2023-04-04T11:39:29.863Z,4.35
2023-04-04T11:42:38.482Z,6.53
2023-04-04T11:45:48.931Z,7.07
2023-04-04T11:48:51.620Z,6.15
2023-04-04T11:51:53.286Z,6.15
2023-04-04T11:54:54.888Z,4.97
2023-04-04T11:58:06.140Z,5.13
2023-04-04T12:01:08.389Z,4.40
2023-04-04T12:04:10.405Z,3.45
2023-04-04T12:07:12.740Z,9.93
2023-04-04T12:10:54.816Z,5.88
2023-04-04T12:22:39.124Z,5.15
2023-04-04T13:05:18.848Z,4.78
2023-04-04T13:13:41.426Z,5.10
2023-04-04T14:28:46.780Z,5.78
2023-04-04T14:31:48.508Z,5.85
2023-04-04T14:34:55.481Z,5.35
2023-04-04T14:37:57.183Z,4.13
2023-04-04T14:41:00.859Z,3.30
2023-04-04T14:44:02.652Z,7.03
2023-04-04T14:47:07.446Z,6.20
2023-04-04T14:50:09.646Z,4.53
2023-04-04T14:56:13.294Z,3.60
2023-04-04T14:59:19.749Z,7.68
2023-04-04T15:02:23.859Z,5.93
2023-04-04T15:05:27.827Z,6.57
2023-04-04T15:08:29.362Z,10.35
2023-04-04T15:11:31.029Z,12.10
2023-04-04T15:14:32.636Z,8.77
2023-04-04T15:17:34.230Z,2.90
2023-04-04T15:20:39.923Z,4.28
2023-04-04T15:23:42.049Z,6.35
2023-04-04T15:26:43.810Z,9.50
2023-04-04T15:29:48.023Z,5.75
2023-04-04T15:32:50.812Z,5.22
2023-04-04T15:35:53.963Z,4.57
2023-04-04T15:38:56.051Z,4.17
2023-04-04T15:41:59.214Z,4.82
2023-04-04T15:45:03.653Z,5.75
2023-04-04T15:48:05.598Z,4.70
2023-04-04T15:51:07.211Z,8.30
2023-04-04T15:54:08.712Z,2.57
2023-04-04T15:57:10.383Z,5.43
2023-04-04T16:00:17.712Z,3.85
2023-04-04T16:03:21.867Z,4.47
2023-04-04T16:06:29.023Z,5.35
2023-04-04T16:09:40.706Z,5.18
2023-04-04T16:13:10.271Z,7.33
2023-04-04T16:16:12.240Z,2.78
2023-04-04T16:19:23.802Z,4.70
2023-04-04T16:22:31.268Z,5.20
2023-04-04T16:25:38.673Z,4.20
2023-04-04T16:28:41.368Z,5.57
2023-04-04T16:31:47.826Z,4.85
2023-04-04T16:34:49.701Z,4.68
2023-04-04T16:37:51.986Z,5.90
2023-04-04T16:40:53.636Z,4.75
2023-04-04T16:44:02.028Z,5.40
2023-04-04T16:47:06.927Z,5.95
2023-04-04T16:50:13.969Z,9.30
2023-04-04T16:53:19.225Z,5.65
2023-04-04T16:56:28.131Z,5.93
2023-04-04T16:59:35.245Z,15.75
2023-04-04T17:02:46.395Z,22.60
2023-04-04T17:05:56.289Z,35.75
2023-04-04T17:09:01.382Z,22.25
2023-04-04T17:12:04.542Z,34.00
2023-04-04T17:15:17.704Z,41.00
2023-04-04T17:18:27.205Z,12.98
2023-04-04T17:21:30.212Z,7.63
2023-04-04T17:24:35.042Z,6.40
2023-04-04T17:27:52.069Z,5.53
2023-04-04T17:30:57.005Z,5.32
2023-04-04T17:34:17.256Z,7.05
2023-04-04T17:37:19.241Z,5.18
2023-04-04T17:40:23.847Z,19.73
2023-04-04T17:43:36.850Z,28.10
2023-04-04T17:46:40.872Z,3.25
2023-04-04T17:49:48.927Z,14.77
2023-04-04T17:52:59.427Z,7.15
2023-04-04T17:56:10.848Z,6.20
2023-04-04T17:59:13.981Z,6.88
2023-04-04T18:02:30.053Z,7.65
2023-04-04T18:05:32.446Z,4.53
2023-04-04T18:08:41.181Z,4.10
2023-04-04T18:11:46.768Z,7.47
2023-04-04T18:14:53.821Z,8.00
2023-04-04T18:18:06.539Z,8.43
2023-04-04T18:24:35.293Z,12.35
2023-04-04T18:28:06.184Z,8.90
2023-04-04T18:31:09.368Z,12.30
2023-04-04T18:34:15.260Z,11.75
2023-04-04T18:37:32.461Z,4.30
2023-04-04T18:40:58.970Z,8.90
2023-04-04T18:44:06.624Z,13.35
2023-04-04T18:47:08.478Z,9.60
2023-04-04T18:50:10.376Z,6.88
2023-04-04T18:53:12.651Z,5.63
2023-04-04T18:56:50.164Z,6.72
2023-04-04T18:59:59.803Z,4.93
2023-04-04T19:03:01.593Z,8.95
2023-04-04T19:06:05.093Z,10.55
2023-04-04T19:09:07.004Z,6.47
2023-04-04T19:12:08.586Z,5.13
2023-04-04T19:15:10.428Z,13.07
2023-04-04T19:18:12.057Z,6.63
2023-04-04T19:21:13.640Z,4.57
2023-04-04T19:24:15.209Z,5.88
2023-04-04T19:27:16.766Z,14.00
2023-04-04T19:30:49.921Z,4.82
2023-04-04T19:33:54.875Z,5.07
2023-04-04T19:36:56.418Z,24.88
2023-04-04T19:39:57.948Z,9.20
2023-04-04T19:43:00.554Z,7.78
2023-04-04T19:49:12.675Z,12.35
2023-04-04T19:52:23.912Z,9.10
2023-04-04T19:55:40.174Z,5.18
2023-04-04T19:58:42.169Z,6.28
2023-04-04T20:01:53.738Z,2.67
2023-04-04T20:05:01.694Z,6.05
2023-04-04T20:08:03.329Z,9.80
2023-04-04T20:11:05.422Z,11.50
2023-04-04T20:14:08.139Z,8.98
2023-04-04T20:20:11.541Z,11.75
2023-04-04T20:23:14.249Z,14.73
2023-04-04T20:26:59.855Z,7.55
2023-04-04T20:30:01.460Z,6.78
2023-04-04T20:33:08.010Z,7.05
2023-04-04T20:36:10.500Z,8.85
2023-04-04T20:39:38.726Z,6.45
2023-04-04T20:42:40.747Z,8.05
2023-04-04T20:45:46.756Z,12.07
2023-04-04T20:48:48.725Z,5.45
2023-04-04T20:51:50.412Z,6.63
2023-04-04T20:54:51.932Z,8.15
2023-04-04T20:57:54.589Z,6.80
2023-04-04T21:04:01.688Z,7.55
2023-04-04T21:07:04.474Z,8.27
2023-04-04T21:13:27.743Z,6.28
2023-04-04T21:16:29.917Z,7.90
2023-04-04T21:19:34.809Z,12.68
2023-04-04T21:22:36.664Z,10.65
2023-04-04T21:25:44.570Z,13.07
2023-04-04T21:28:46.130Z,10.38
2023-04-04T21:31:48.766Z,8.77
2023-04-04T21:34:51.060Z,9.25
2023-04-04T21:37:52.625Z,8.35
2023-04-04T21:40:55.900Z,5.00
2023-04-04T21:43:58.748Z,8.85
2023-04-04T21:47:00.273Z,6.88
2023-04-04T21:50:03.320Z,7.60
2023-04-04T21:53:04.842Z,6.50
2023-04-04T21:56:06.479Z,6.18
2023-04-04T21:59:11.206Z,6.15
2023-04-04T22:02:12.795Z,5.88
2023-04-04T22:05:14.525Z,11.60
2023-04-04T22:08:16.274Z,7.13
2023-04-04T22:11:20.596Z,5.95
2023-04-04T22:14:22.773Z,11.38
2023-04-04T22:17:24.626Z,6.88
2023-04-04T22:20:26.238Z,9.70
2023-04-04T22:23:27.766Z,7.55
2023-04-04T22:26:32.487Z,6.10
2023-04-04T22:29:34.389Z,5.38
2023-04-04T22:32:35.965Z,7.72
2023-04-04T22:35:37.626Z,10.75
2023-04-04T22:38:39.670Z,9.63
2023-04-04T22:41:41.200Z,7.30
2023-04-04T22:44:42.860Z,5.38
2023-04-04T22:47:47.210Z,8.23
2023-04-04T22:50:51.384Z,9.32
2023-04-04T22:53:57.658Z,9.68
2023-04-04T22:57:00.638Z,5.00
2023-04-04T23:00:06.289Z,4.30
2023-04-04T23:03:07.940Z,5.63
2023-04-04T23:06:09.501Z,10.35
2023-04-04T23:09:11.168Z,7.53
2023-04-04T23:12:12.729Z,6.45
2023-04-04T23:15:14.517Z,5.55
2023-04-04T23:18:16.135Z,7.20
2023-04-04T23:21:17.684Z,8.10
2023-04-04T23:24:19.200Z,5.13
2023-04-04T23:27:21.081Z,6.32
2023-04-04T23:30:25.626Z,6.43
2023-04-04T23:33:27.286Z,6.05
2023-04-04T23:36:28.838Z,6.00
2023-04-04T23:39:30.351Z,5.88
2023-04-04T23:42:31.876Z,4.70
2023-04-04T23:45:34.731Z,6.70
2023-04-04T23:48:36.335Z,8.35
2023-04-04T23:51:38.400Z,6.82
2023-04-04T23:54:39.937Z,7.22
2023-04-04T23:57:43.632Z,6.72
